This is the latest recevied weather packets stored in our database for station/object KC0UFP. If no packets are shown the sender has not sent any weather packets the latest 10 day(s).
| Time | Temp. | Humidity | Pressure | Rain* | Wind** | Luminosity | Snow |
|---|---|---|---|---|---|---|---|
| 1777772729 | 14.44° C | 52% | 1018.8 hPa | 0 mm | - | 0 W/m² | - |
| 1777772124 | 15° C | 51% | 1018.7 hPa | 0 mm | - | 0 W/m² | - |
| 1777769397 | 16.11° C | 45% | 1018.2 hPa | 0 mm | - | 4 W/m² | - |
| 1777766367 | 17.78° C | 36% | 1017.5 hPa | 0 mm | - | 48 W/m² | - |
| 1777766063 | 17.78° C | 36% | 1017.6 hPa | 0 mm | - | 69 W/m² | - |
| 1777765761 | 17.78° C | 35% | 1017.5 hPa | 0 mm | - | 97 W/m² | - |
| 1777763336 | 18.33° C | 34% | 1017.4 hPa | 0 mm | - | 110 W/m² | - |
| 1777761820 | 18.33° C | 34% | 1017.3 hPa | 0 mm | - | 120 W/m² | - |
| 1777761215 | 19.44° C | 32% | 1017.3 hPa | 0 mm | - | 369 W/m² | - |
| 1777760913 | 20° C | 32% | 1017.3 hPa | 0 mm | - | 414 W/m² | - |
| 1777760002 | 20° C | 31% | 1017.2 hPa | 0 mm | - | 462 W/m² | - |
| 1777759700 | 20° C | 31% | 1017 hPa | 0 mm | - | 465 W/m² | - |
| 1777758487 | 19.44° C | 32% | 1017 hPa | 0 mm | - | 631 W/m² | - |
| 1777757880 | 20° C | 32% | 1017 hPa | 0 mm | - | 694 W/m² | - |
| 1777756367 | 19.44° C | 35% | 1017 hPa | 0 mm | - | 800 W/m² | - |
| 1777754852 | 20° C | 34% | 1017.1 hPa | 0 mm | - | 835 W/m² | - |
| 1777753337 | 19.44° C | 34% | 1017.1 hPa | 0 mm | - | 942 W/m² | - |
| 1777751214 | 20° C | 34% | 1017.2 hPa | 0 mm | - | 472 W/m² | - |
| 1777749999 | 20.56° C | 34% | 1017.1 hPa | 0 mm | - | 1007 W/m² | - |
| 1777749697 | 20.56° C | 31% | 1017.2 hPa | 0 mm | - | 1008 W/m² | - |
| 1777749394 | 20° C | 34% | 1017.2 hPa | 0 mm | - | 1080 W/m² | - |
| 1777748789 | 20.56° C | 34% | 1017 hPa | 0 mm | - | 1147 W/m² | - |
| 1777748487 | 20° C | 34% | 1017.2 hPa | 0 mm | - | 1097 W/m² | - |
| 1777748181 | 20° C | 34% | 1017.3 hPa | 0 mm | - | 324 W/m² | - |
| 1777747574 | 20° C | 33% | 1017.3 hPa | 0 mm | - | 1108 W/m² | - |
* Rain latest hour (hover to see other rain measurements)
** Current wind speed in m/s (hover to see current wind gust speed)